Time;durP1;ratioP1;P1;durP2;ratioP2;P2;SDS_P1;SDS_P2;PMS_P1;PMS_P2;Temp;Humidity;BMP_temperature;BMP_pressure;BME280_temperature;BME280_humidity;BME280_pressure;Samples;Min_cycle;Max_cycle;Signal;HPM_P1;HPM_P2
2022/01/28 00:00:08;;;;;;;8.30;7.33;;;7.00;99.90;;;;;;6266188;23;20619;-94
2022/01/28 00:02:59;;;;;;;8.90;7.10;;;6.90;99.90;;;;;;6268367;23;20181;-94
2022/01/28 00:08:17;;;;;;;9.20;6.80;;;6.60;99.90;;;;;;6308639;22;20196;-93
2022/01/28 00:10:51;;;;;;;13.03;7.20;;;6.70;99.90;;;;;;6330205;22;20174;-93
2022/01/28 00:13:28;;;;;;;13.03;7.07;;;6.60;99.90;;;;;;6274015;22;20195;-91
2022/01/28 00:40:39;;;;;;;9.10;7.20;;;6.00;99.90;;;;;;6274489;22;20213;-84
2022/01/28 00:43:10;;;;;;;11.27;7.43;;;6.00;99.90;;;;;;6242144;23;20192;-93
2022/01/28 00:45:41;;;;;;;9.00;6.90;;;5.90;99.90;;;;;;6235829;23;20169;-93
2022/01/28 00:50:57;;;;;;;9.70;6.70;;;5.70;99.90;;;;;;6237638;23;20190;-93
2022/01/28 00:53:29;;;;;;;12.93;6.83;;;5.70;99.90;;;;;;6236456;23;20172;-93
2022/01/28 00:56:03;;;;;;;12.97;6.47;;;5.60;99.90;;;;;;6237058;23;20172;-93
2022/01/28 00:58:34;;;;;;;10.50;6.83;;;5.50;99.90;;;;;;6236463;23;20167;-93
2022/01/28 01:01:05;;;;;;;8.67;6.20;;;5.40;99.90;;;;;;6236497;23;20176;-93
2022/01/28 01:03:36;;;;;;;7.27;5.83;;;5.30;99.90;;;;;;6233891;23;20259;-93
2022/01/28 01:06:10;;;;;;;11.73;6.37;;;5.20;99.90;;;;;;6236385;23;20231;-92
2022/01/28 01:08:41;;;;;;;10.27;6.10;;;5.10;99.90;;;;;;6236507;23;20173;-93
2022/01/28 01:11:16;;;;;;;9.57;6.40;;;4.90;99.90;;;;;;6237457;23;20224;-93
2022/01/28 01:13:49;;;;;;;10.60;6.80;;;4.90;99.90;;;;;;6235523;23;20172;-93
2022/01/28 01:16:26;;;;;;;9.67;6.33;;;4.70;99.90;;;;;;6236046;23;20173;-92
2022/01/28 01:19:14;;;;;;;9.03;6.47;;;4.70;99.90;;;;;;6235716;23;20187;-92
2022/01/28 01:21:45;;;;;;;8.20;6.27;;;4.70;99.90;;;;;;6234961;23;20244;-93
2022/01/28 01:24:23;;;;;;;8.53;6.00;;;4.70;99.90;;;;;;6234720;23;20180;-93
2022/01/28 01:26:59;;;;;;;8.60;6.53;;;4.60;99.90;;;;;;6235499;23;20179;-93
2022/01/28 01:29:32;;;;;;;8.67;6.63;;;4.50;99.90;;;;;;6235352;23;20224;-93
2022/01/28 01:32:12;;;;;;;8.93;6.57;;;4.40;99.90;;;;;;6234528;23;20203;-92
2022/01/28 01:34:44;;;;;;;11.40;8.40;;;4.30;99.90;;;;;;6233986;23;20267;-92
2022/01/28 01:37:14;;;;;;;12.30;7.97;;;4.20;99.90;;;;;;6235064;23;20269;-93
2022/01/28 01:39:46;;;;;;;12.53;8.00;;;4.20;99.90;;;;;;6236818;23;20184;-93
2022/01/28 01:42:29;;;;;;;12.93;8.03;;;4.10;99.90;;;;;;6253158;23;20215;-94
2022/01/28 01:53:37;;;;;;;13.53;8.20;;;3.80;99.90;;;;;;6266465;23;20199;-93
2022/01/28 01:56:10;;;;;;;13.33;8.67;;;3.70;99.90;;;;;;6268625;22;20156;-93
2022/01/28 01:58:44;;;;;;;9.20;7.43;;;3.70;99.90;;;;;;6273709;22;20175;-93
2022/01/28 02:01:15;;;;;;;10.07;6.67;;;3.60;99.90;;;;;;6271929;22;20240;-93
2022/01/28 02:03:47;;;;;;;9.07;7.23;;;3.50;99.90;;;;;;6273399;22;20172;-93
2022/01/28 02:06:21;;;;;;;11.27;7.87;;;3.50;99.90;;;;;;6267975;23;20175;-93
2022/01/28 02:08:53;;;;;;;9.30;6.87;;;3.40;99.90;;;;;;6267963;23;20172;-94
2022/01/28 02:11:25;;;;;;;11.60;7.17;;;3.40;99.90;;;;;;6271053;22;20152;-93
2022/01/28 02:13:58;;;;;;;11.00;7.20;;;3.30;99.90;;;;;;6266989;22;20203;-93
2022/01/28 02:16:30;;;;;;;13.30;8.60;;;3.30;99.90;;;;;;6264601;22;20187;-92
2022/01/28 02:19:03;;;;;;;13.40;8.67;;;3.30;99.90;;;;;;6264876;23;20179;-94
2022/01/28 02:24:14;;;;;;;13.20;8.83;;;3.20;99.90;;;;;;6271528;22;20207;-93
2022/01/28 02:26:46;;;;;;;13.13;9.73;;;3.20;99.90;;;;;;6266058;23;20175;-92
2022/01/28 02:29:27;;;;;;;17.77;10.07;;;3.20;99.90;;;;;;6270667;22;20175;-92
2022/01/28 02:31:59;;;;;;;14.27;11.23;;;3.10;99.90;;;;;;6270993;22;20170;-93
2022/01/28 02:34:30;;;;;;;15.63;12.17;;;3.10;99.90;;;;;;6271638;22;20203;-92
2022/01/28 02:37:02;;;;;;;16.17;11.80;;;3.00;99.90;;;;;;6264392;23;20179;-93
2022/01/28 02:39:35;;;;;;;11.93;10.30;;;3.00;99.90;;;;;;6266329;22;20163;-93
2022/01/28 02:42:16;;;;;;;14.20;10.43;;;3.00;99.90;;;;;;6265601;22;20172;-92
2022/01/28 02:44:50;;;;;;;14.20;10.33;;;3.00;99.90;;;;;;6265474;23;20168;-93
2022/01/28 02:47:31;;;;;;;13.50;9.77;;;2.90;99.90;;;;;;6260408;22;20190;-93
2022/01/28 02:50:03;;;;;;;14.93;10.73;;;2.90;99.90;;;;;;6266392;22;20977;-91
2022/01/28 02:52:38;;;;;;;13.57;9.63;;;2.80;99.90;;;;;;6241417;23;20260;-94
2022/01/28 02:55:14;;;;;;;13.87;9.43;;;2.80;99.90;;;;;;6239625;23;20208;-93
2022/01/28 02:57:52;;;;;;;15.67;11.63;;;2.70;99.90;;;;;;6237836;23;20164;-94
2022/01/28 03:00:23;;;;;;;17.23;12.20;;;2.60;99.90;;;;;;6240121;23;20176;-94
2022/01/28 03:02:56;;;;;;;15.93;10.80;;;2.60;99.90;;;;;;6240953;23;20172;-92
2022/01/28 03:08:22;;;;;;;15.53;10.50;;;2.50;99.90;;;;;;6293895;22;20217;-94
2022/01/28 03:11:22;;;;;;;17.83;13.57;;;2.50;99.90;;;;;;6300352;22;20171;-94
2022/01/28 03:14:14;;;;;;;17.60;14.30;;;2.50;99.90;;;;;;6296058;22;20203;-94
2022/01/28 03:19:47;;;;;;;16.67;9.17;;;2.40;99.90;;;;;;6247305;22;20187;-94
2022/01/28 03:22:19;;;;;;;15.00;9.87;;;2.40;99.90;;;;;;6293909;22;20246;-94
2022/01/28 03:24:53;;;;;;;10.80;8.60;;;2.40;99.90;;;;;;6292085;22;20167;-94
2022/01/28 03:27:45;;;;;;;10.97;7.87;;;2.30;99.90;;;;;;6292818;22;20171;-94
2022/01/28 03:30:16;;;;;;;8.43;6.20;;;2.30;99.90;;;;;;6293865;22;20291;-93
2022/01/28 03:32:47;;;;;;;9.73;6.50;;;2.30;99.90;;;;;;6293568;22;20213;-94
2022/01/28 03:35:36;;;;;;;8.57;5.70;;;2.30;99.90;;;;;;6296871;22;20219;-94
2022/01/28 03:38:12;;;;;;;9.27;5.90;;;2.20;99.90;;;;;;6295412;22;20155;-94
2022/01/28 03:40:44;;;;;;;9.87;6.60;;;2.20;99.90;;;;;;6267777;22;20167;-93
2022/01/28 03:43:18;;;;;;;12.37;7.50;;;2.20;99.90;;;;;;6294642;22;20167;-94
2022/01/28 03:45:52;;;;;;;9.53;7.30;;;2.10;99.90;;;;;;6294240;22;20261;-93
2022/01/28 03:48:23;;;;;;;9.23;6.83;;;2.10;99.90;;;;;;6295657;22;20190;-93
2022/01/28 03:50:54;;;;;;;7.23;5.73;;;2.00;99.90;;;;;;6296551;22;20167;-93
2022/01/28 03:53:26;;;;;;;7.20;5.07;;;2.00;99.90;;;;;;6293437;22;20225;-93
2022/01/28 03:55:58;;;;;;;7.67;6.17;;;1.90;99.90;;;;;;6295832;22;20182;-94
2022/01/28 03:58:32;;;;;;;8.97;6.37;;;1.90;99.90;;;;;;6271598;22;20223;-94
2022/01/28 04:01:11;;;;;;;6.70;4.57;;;1.90;99.90;;;;;;6297670;22;20285;-93
2022/01/28 04:03:49;;;;;;;6.70;4.80;;;1.90;99.90;;;;;;6297471;22;20183;-93
2022/01/28 04:11:57;;;;;;;4.70;3.57;;;1.80;99.90;;;;;;6278023;22;20167;-94
2022/01/28 04:14:47;;;;;;;5.17;3.80;;;1.70;99.90;;;;;;6305587;22;20198;-93
2022/01/28 04:17:22;;;;;;;3.77;2.90;;;1.70;99.90;;;;;;6305298;22;20179;-90
2022/01/28 04:19:54;;;;;;;3.60;2.70;;;1.60;99.90;;;;;;6305047;22;20185;-95
2022/01/28 04:22:25;;;;;;;6.63;3.23;;;1.60;99.90;;;;;;6305849;22;20166;-93
2022/01/28 04:24:56;;;;;;;6.27;2.90;;;1.60;99.90;;;;;;6305632;22;20171;-94
2022/01/28 04:27:28;;;;;;;4.50;3.03;;;1.50;99.90;;;;;;6279453;22;20182;-95
2022/01/28 04:30:02;;;;;;;5.60;2.80;;;1.50;99.90;;;;;;6303245;22;20164;-93
2022/01/28 04:32:35;;;;;;;6.07;3.27;;;1.50;99.90;;;;;;6276482;22;20158;-93
2022/01/28 04:35:07;;;;;;;7.20;3.60;;;1.40;99.90;;;;;;6303701;22;20225;-93
2022/01/28 04:37:47;;;;;;;4.57;4.07;;;1.40;99.90;;;;;;6303299;22;20179;-94
2022/01/28 04:40:21;;;;;;;9.10;5.20;;;1.40;99.90;;;;;;6303089;22;20168;-93
2022/01/28 04:45:49;;;;;;;7.80;4.97;;;1.40;99.90;;;;;;6303575;22;20155;-93
2022/01/28 04:48:27;;;;;;;5.63;4.10;;;1.30;99.90;;;;;;6301407;22;20202;-93
2022/01/28 04:51:12;;;;;;;5.30;4.20;;;1.40;99.90;;;;;;6303636;22;20171;-92
2022/01/28 04:53:55;;;;;;;7.73;5.27;;;1.40;99.90;;;;;;6304195;22;20213;-92
2022/01/28 04:56:41;;;;;;;6.90;4.53;;;1.40;99.90;;;;;;6303847;22;20197;-96
2022/01/28 05:05:02;;;;;;;5.80;4.47;;;1.20;99.90;;;;;;6286028;22;20209;-95
2022/01/28 05:07:46;;;;;;;6.63;4.80;;;1.10;99.90;;;;;;6274335;22;20204;-94
2022/01/28 05:10:54;;;;;;;8.37;5.30;;;1.10;99.90;;;;;;6273065;22;20202;-96
2022/01/28 05:13:53;;;;;;;10.27;7.50;;;1.10;99.90;;;;;;6274440;22;20186;-95
2022/01/28 05:27:55;;;;;;;11.90;7.50;;;1.20;99.90;;;;;;6264236;23;20195;-94
2022/01/28 05:30:26;;;;;;;13.37;7.70;;;1.20;99.90;;;;;;6259505;22;20168;-94
2022/01/28 05:32:58;;;;;;;10.03;7.50;;;1.20;99.90;;;;;;6266749;22;20251;-94
2022/01/28 05:35:30;;;;;;;15.23;8.37;;;1.10;99.90;;;;;;6267195;22;20179;-94
2022/01/28 05:38:03;;;;;;;12.93;8.37;;;1.10;99.90;;;;;;6267890;22;20179;-93
2022/01/28 05:40:34;;;;;;;15.40;9.50;;;1.10;99.90;;;;;;6266024;22;20202;-93
2022/01/28 05:43:05;;;;;;;15.57;10.97;;;1.10;99.90;;;;;;6268189;22;20176;-93
2022/01/28 05:45:36;;;;;;;14.77;9.77;;;1.10;99.90;;;;;;6255899;23;20172;-93
2022/01/28 05:48:07;;;;;;;18.03;11.17;;;1.10;99.90;;;;;;6258814;22;20206;-94
2022/01/28 05:50:39;;;;;;;17.20;11.37;;;1.00;99.90;;;;;;6257698;22;20552;-94
2022/01/28 05:53:12;;;;;;;16.93;10.53;;;1.10;99.90;;;;;;6252801;22;20168;-95
2022/01/28 05:55:43;;;;;;;15.40;9.60;;;1.00;99.90;;;;;;6254740;23;20196;-95
2022/01/28 05:58:14;;;;;;;14.73;9.60;;;1.00;99.90;;;;;;6252217;22;20175;-95
2022/01/28 06:00:45;;;;;;;20.83;11.53;;;1.10;99.90;;;;;;6252965;22;20183;-94
2022/01/28 06:03:17;;;;;;;15.77;10.70;;;1.10;99.90;;;;;;6253031;22;20224;-94
2022/01/28 06:05:49;;;;;;;16.20;10.27;;;1.10;99.90;;;;;;6255213;23;20168;-94
2022/01/28 06:08:21;;;;;;;18.73;12.37;;;1.00;99.90;;;;;;6253615;22;20167;-94
2022/01/28 06:10:51;;;;;;;16.07;12.23;;;1.00;99.90;;;;;;6282136;22;20528;-94
2022/01/28 06:13:23;;;;;;;17.20;11.60;;;1.00;99.90;;;;;;6286295;22;20160;-95
2022/01/28 06:15:57;;;;;;;20.30;12.20;;;0.90;99.90;;;;;;6285021;22;20206;-95
2022/01/28 06:18:29;;;;;;;17.77;11.70;;;0.90;99.90;;;;;;6281612;22;20217;-94
2022/01/28 06:21:00;;;;;;;17.67;12.00;;;0.90;99.90;;;;;;6295773;22;20179;-94
2022/01/28 06:23:35;;;;;;;18.20;12.20;;;0.90;99.90;;;;;;6296671;22;20477;-94
2022/01/28 06:26:06;;;;;;;16.00;10.87;;;0.90;99.90;;;;;;6284453;22;20171;-94
2022/01/28 06:28:37;;;;;;;17.53;12.53;;;0.90;99.90;;;;;;6281527;22;20179;-95
2022/01/28 06:31:09;;;;;;;14.30;9.83;;;0.90;99.90;;;;;;6284761;22;20193;-94
2022/01/28 06:33:41;;;;;;;20.47;11.13;;;0.90;99.90;;;;;;6281784;22;20239;-95
2022/01/28 06:36:12;;;;;;;15.00;9.50;;;0.90;99.90;;;;;;6281878;22;20167;-95
2022/01/28 06:38:46;;;;;;;14.30;9.40;;;0.90;99.90;;;;;;6281367;22;20181;-95
2022/01/28 06:41:17;;;;;;;16.23;10.10;;;0.90;99.90;;;;;;6281562;22;20213;-96
2022/01/28 06:43:48;;;;;;;16.00;11.17;;;0.80;99.90;;;;;;6281620;22;20201;-95
2022/01/28 06:46:19;;;;;;;21.80;12.27;;;0.80;99.90;;;;;;6281394;22;20171;-95
2022/01/28 06:48:50;;;;;;;18.33;11.20;;;0.80;99.90;;;;;;6281754;22;20163;-96
2022/01/28 06:51:21;;;;;;;15.07;11.20;;;0.80;99.90;;;;;;6282276;22;20482;-96
2022/01/28 06:53:54;;;;;;;13.83;10.03;;;0.80;99.90;;;;;;6281637;22;20205;-96
2022/01/28 06:56:25;;;;;;;17.63;10.97;;;0.80;99.90;;;;;;6281728;22;20175;-96
2022/01/28 06:58:56;;;;;;;16.10;9.73;;;0.80;99.90;;;;;;6281169;22;20207;-95
2022/01/28 07:01:27;;;;;;;15.20;9.30;;;0.80;99.90;;;;;;6281703;22;20170;-95
2022/01/28 07:04:00;;;;;;;13.87;9.60;;;0.80;99.90;;;;;;6281467;22;20252;-93
2022/01/28 07:06:31;;;;;;;15.63;9.40;;;0.70;99.90;;;;;;6282490;22;20197;-93
2022/01/28 07:09:04;;;;;;;16.43;9.33;;;0.70;99.90;;;;;;6282013;22;20252;-94
2022/01/28 07:11:35;;;;;;;12.33;8.70;;;0.70;99.90;;;;;;6283113;22;20178;-93
2022/01/28 07:14:07;;;;;;;16.03;9.80;;;0.70;99.90;;;;;;6256082;22;20174;-94
2022/01/28 07:16:38;;;;;;;14.63;9.70;;;0.80;99.90;;;;;;6289294;22;20509;-94
2022/01/28 07:19:09;;;;;;;15.83;10.17;;;0.80;99.90;;;;;;6300096;22;20167;-93
2022/01/28 07:21:40;;;;;;;13.90;9.03;;;0.80;99.90;;;;;;6276595;22;20166;-93
2022/01/28 07:24:13;;;;;;;15.10;8.70;;;0.80;99.90;;;;;;6301827;22;20163;-95
2022/01/28 07:26:45;;;;;;;12.87;9.30;;;0.80;99.90;;;;;;6275828;22;20171;-95
2022/01/28 07:29:16;;;;;;;11.30;8.57;;;0.80;99.90;;;;;;6300508;22;20193;-94
2022/01/28 07:31:48;;;;;;;17.97;9.53;;;0.70;99.90;;;;;;6270231;22;20219;-93
2022/01/28 07:34:19;;;;;;;16.30;9.33;;;0.70;99.90;;;;;;6272379;22;20167;-93
2022/01/28 07:36:50;;;;;;;14.93;9.00;;;0.70;99.90;;;;;;6269902;22;20171;-94
2022/01/28 07:39:23;;;;;;;16.53;9.80;;;0.70;99.90;;;;;;6266361;22;20172;-92
2022/01/28 07:41:54;;;;;;;14.67;9.53;;;0.60;99.90;;;;;;6256550;23;20174;-94
2022/01/28 07:44:25;;;;;;;16.00;10.17;;;0.60;99.90;;;;;;6252971;22;20213;-93
2022/01/28 07:46:56;;;;;;;17.17;11.07;;;0.50;99.90;;;;;;6252939;22;20198;-94
2022/01/28 07:49:27;;;;;;;15.67;10.93;;;0.50;99.90;;;;;;6264421;22;20167;-93
2022/01/28 07:51:58;;;;;;;15.87;11.17;;;0.40;99.90;;;;;;6261282;23;20180;-93
2022/01/28 07:54:32;;;;;;;15.17;10.97;;;0.40;99.90;;;;;;6252185;22;20168;-92
2022/01/28 07:57:05;;;;;;;15.70;11.00;;;0.30;99.90;;;;;;6249857;23;20179;-94
2022/01/28 07:59:37;;;;;;;15.30;9.90;;;0.40;99.90;;;;;;6252135;23;20175;-94
2022/01/28 08:02:09;;;;;;;13.37;9.07;;;0.40;99.90;;;;;;6252202;22;20183;-94
2022/01/28 08:04:41;;;;;;;14.27;9.13;;;0.30;99.90;;;;;;6251689;22;20168;-93
2022/01/28 08:07:12;;;;;;;14.80;9.00;;;0.40;99.90;;;;;;6249534;22;20195;-94
2022/01/28 08:09:45;;;;;;;14.60;9.43;;;0.40;99.90;;;;;;6250674;22;20168;-94
2022/01/28 08:12:16;;;;;;;12.93;8.47;;;0.30;99.90;;;;;;6251012;22;20203;-94
2022/01/28 08:14:48;;;;;;;13.60;8.27;;;0.30;99.90;;;;;;6251075;22;20198;-94
2022/01/28 08:17:19;;;;;;;16.47;8.37;;;0.20;99.90;;;;;;6249265;22;20176;-94
2022/01/28 08:19:50;;;;;;;14.13;8.50;;;0.20;99.90;;;;;;6250395;22;20203;-95
2022/01/28 08:22:21;;;;;;;17.70;8.97;;;0.20;99.90;;;;;;6249885;22;20508;-94
2022/01/28 08:24:54;;;;;;;13.43;8.10;;;0.10;99.90;;;;;;6250838;22;20193;-94
2022/01/28 08:27:25;;;;;;;11.57;7.60;;;0.10;99.90;;;;;;6249746;22;20178;-94
2022/01/28 08:29:57;;;;;;;12.03;8.10;;;0.10;99.90;;;;;;6254061;22;20183;-93
2022/01/28 08:32:29;;;;;;;11.13;7.50;;;0.10;99.90;;;;;;6289403;22;20288;-94
2022/01/28 08:35:00;;;;;;;11.93;7.80;;;0.00;99.90;;;;;;6280346;22;20690;-94
2022/01/28 08:37:31;;;;;;;12.33;7.80;;;0.00;99.90;;;;;;6281944;22;20216;-95
2022/01/28 08:40:06;;;;;;;11.17;7.07;;;0.00;99.90;;;;;;6281144;22;20202;-95
2022/01/28 08:42:37;;;;;;;9.17;6.50;;;0.00;99.90;;;;;;6284987;22;20174;-93
2022/01/28 08:45:09;;;;;;;10.77;6.23;;;0.00;99.90;;;;;;6283335;22;20510;-95
2022/01/28 08:47:40;;;;;;;12.97;6.80;;;0.00;99.90;;;;;;6282138;22;20220;-95
2022/01/28 08:50:12;;;;;;;9.67;6.23;;;0.00;99.90;;;;;;6282653;22;20246;-93
2022/01/28 08:52:46;;;;;;;9.87;5.80;;;0.00;99.90;;;;;;6282927;22;20185;-96
2022/01/28 08:55:18;;;;;;;9.27;5.83;;;0.00;99.90;;;;;;6286121;22;20202;-94
2022/01/28 08:57:50;;;;;;;8.33;5.50;;;0.00;99.90;;;;;;6281264;22;20656;-95
2022/01/28 09:00:22;;;;;;;9.33;5.30;;;0.00;99.90;;;;;;6295943;22;20171;-93
2022/01/28 09:02:53;;;;;;;7.57;5.17;;;-0.10;99.90;;;;;;6296719;22;20179;-94
2022/01/28 09:05:24;;;;;;;8.93;4.83;;;-0.10;99.90;;;;;;6282536;22;20168;-94
2022/01/28 09:07:55;;;;;;;8.43;5.43;;;-0.10;99.90;;;;;;6281865;22;20636;-94
2022/01/28 09:10:30;;;;;;;9.63;5.57;;;-0.20;99.90;;;;;;6262129;22;20191;-94
2022/01/28 09:13:22;;;;;;;9.67;5.17;;;-0.20;99.90;;;;;;6283209;22;20552;-94
2022/01/28 09:15:56;;;;;;;7.27;5.20;;;-0.20;99.90;;;;;;6281977;22;20219;-94
2022/01/28 09:18:27;;;;;;;7.63;5.43;;;-0.20;99.90;;;;;;6284829;22;20254;-95
2022/01/28 09:20:59;;;;;;;8.70;5.53;;;-0.20;99.90;;;;;;6262048;22;20618;-94
2022/01/28 09:23:31;;;;;;;9.17;5.23;;;-0.20;99.90;;;;;;6287449;22;20167;-93
2022/01/28 09:26:05;;;;;;;7.37;4.60;;;-0.20;99.90;;;;;;6285428;22;20856;-93
2022/01/28 09:28:36;;;;;;;7.90;5.17;;;-0.20;99.90;;;;;;6296898;22;20177;-95
2022/01/28 09:31:08;;;;;;;8.00;5.07;;;-0.20;99.90;;;;;;6288851;22;20206;-94
2022/01/28 09:33:41;;;;;;;7.70;4.30;;;-0.30;99.90;;;;;;6295067;22;20201;-96
2022/01/28 09:36:12;;;;;;;5.13;3.80;;;-0.30;99.90;;;;;;6287455;22;20213;-95
2022/01/28 09:38:42;;;;;;;6.60;4.10;;;-0.30;99.90;;;;;;6281011;22;20179;-95
2022/01/28 09:41:16;;;;;;;5.53;4.00;;;-0.20;99.90;;;;;;6284974;22;20167;-94
2022/01/28 09:43:48;;;;;;;8.20;4.57;;;-0.20;99.90;;;;;;6284443;22;20170;-93
2022/01/28 09:46:21;;;;;;;6.40;3.90;;;-0.30;99.90;;;;;;6295070;22;20496;-94
2022/01/28 09:48:52;;;;;;;5.60;3.77;;;-0.30;99.90;;;;;;6303425;22;20218;-94
2022/01/28 09:51:23;;;;;;;5.70;4.00;;;-0.40;99.90;;;;;;6303659;22;20174;-94
2022/01/28 09:53:55;;;;;;;5.97;3.90;;;-0.40;99.90;;;;;;6301285;22;20239;-93
2022/01/28 09:56:31;;;;;;;6.40;3.23;;;-0.40;99.90;;;;;;6291714;22;20185;-94
2022/01/28 09:59:02;;;;;;;4.70;3.23;;;-0.40;99.90;;;;;;6285306;22;20170;-95
2022/01/28 10:01:34;;;;;;;5.10;3.33;;;-0.40;99.90;;;;;;6282161;22;20539;-93
2022/01/28 10:04:08;;;;;;;4.73;3.33;;;-0.50;99.90;;;;;;6282149;22;20180;-94
2022/01/28 10:06:44;;;;;;;5.33;2.67;;;-0.40;99.90;;;;;;6281500;22;20493;-94
2022/01/28 10:09:18;;;;;;;4.27;2.80;;;-0.40;99.90;;;;;;6281590;22;20198;-94
2022/01/28 10:11:57;;;;;;;4.53;2.23;;;-0.50;99.90;;;;;;6281791;22;20176;-94
2022/01/28 10:14:29;;;;;;;3.00;2.13;;;-0.40;99.90;;;;;;6281768;22;20176;-93
2022/01/28 10:17:01;;;;;;;3.03;2.17;;;-0.40;99.90;;;;;;6280535;22;20199;-94
2022/01/28 10:19:42;;;;;;;3.90;1.77;;;-0.40;99.90;;;;;;6281989;22;20170;-94
2022/01/28 10:22:20;;;;;;;2.37;1.83;;;-0.40;99.90;;;;;;6282334;22;20171;-94
2022/01/28 10:25:26;;;;;;;2.47;1.40;;;-0.40;99.90;;;;;;6281039;22;20201;-94
2022/01/28 10:28:01;;;;;;;2.87;1.40;;;-0.40;99.90;;;;;;6280553;22;20181;-94
2022/01/28 10:30:37;;;;;;;1.80;1.43;;;-0.40;99.90;;;;;;6281507;22;20192;-93
2022/01/28 10:33:16;;;;;;;1.83;1.20;;;-0.40;99.90;;;;;;6263655;22;20216;-93
2022/01/28 10:35:55;;;;;;;2.90;1.20;;;-0.40;99.90;;;;;;6284001;22;20165;-93
2022/01/28 10:38:33;;;;;;;1.70;1.50;;;-0.30;99.90;;;;;;6280631;22;20202;-96
2022/01/28 10:41:12;;;;;;;1.77;1.33;;;-0.30;99.90;;;;;;6282558;22;20195;-94
2022/01/28 10:43:51;;;;;;;1.43;1.27;;;-0.40;99.90;;;;;;6283259;22;20172;-94
2022/01/28 10:46:26;;;;;;;2.00;1.50;;;-0.30;99.90;;;;;;6281171;22;20169;-93
2022/01/28 10:48:59;;;;;;;1.77;1.27;;;-0.40;99.90;;;;;;6281116;22;20169;-93
2022/01/28 10:51:41;;;;;;;1.73;1.40;;;-0.50;99.90;;;;;;6282274;22;20613;-95
2022/01/28 10:54:22;;;;;;;2.30;1.53;;;-0.50;99.90;;;;;;6281012;22;20253;-94
2022/01/28 10:56:55;;;;;;;1.77;1.60;;;-0.50;99.90;;;;;;6281008;22;20192;-95
2022/01/28 10:59:31;;;;;;;1.30;1.20;;;-0.50;99.90;;;;;;6255622;22;20182;-94
2022/01/28 11:02:02;;;;;;;1.80;1.40;;;-0.50;99.90;;;;;;6283810;22;20182;-94
2022/01/28 11:04:34;;;;;;;1.97;1.40;;;-0.50;99.90;;;;;;6280849;22;20216;-93
2022/01/28 11:07:06;;;;;;;2.77;1.20;;;-0.50;99.90;;;;;;6280392;22;20173;-93
2022/01/28 11:09:37;;;;;;;2.30;1.33;;;-0.50;99.90;;;;;;6281403;22;20498;-94
2022/01/28 11:12:10;;;;;;;1.30;1.13;;;-0.60;99.90;;;;;;6281484;22;20260;-92
2022/01/28 11:14:44;;;;;;;2.10;1.30;;;-0.60;99.90;;;;;;6281314;22;20206;-94
2022/01/28 11:17:18;;;;;;;1.00;0.90;;;-0.60;99.90;;;;;;6280788;22;20243;-93
2022/01/28 11:19:53;;;;;;;2.87;1.30;;;-0.60;99.90;;;;;;6281108;22;20252;-94
2022/01/28 11:22:47;;;;;;;1.87;1.00;;;-0.50;99.90;;;;;;6255398;22;20588;-94
2022/01/28 11:25:41;;;;;;;1.57;0.93;;;-0.50;99.90;;;;;;6281283;22;20218;-93
2022/01/28 11:28:14;;;;;;;0.93;0.83;;;-0.50;99.90;;;;;;6279715;22;20170;-94
2022/01/28 11:30:52;;;;;;;2.33;1.00;;;-0.50;99.90;;;;;;6280057;22;20237;-94
2022/01/28 11:33:42;;;;;;;1.20;1.10;;;-0.50;99.90;;;;;;6280342;22;20213;-94
2022/01/28 11:36:14;;;;;;;1.80;1.27;;;-0.50;99.90;;;;;;6280907;22;20171;-94
2022/01/28 11:38:47;;;;;;;1.63;1.20;;;-0.50;99.90;;;;;;6279014;22;20233;-95
2022/01/28 11:41:28;;;;;;;1.60;1.37;;;-0.50;99.90;;;;;;6279795;22;20170;-93
2022/01/28 11:44:01;;;;;;;2.13;1.37;;;-0.50;99.90;;;;;;6280355;22;20657;-95
2022/01/28 11:46:39;;;;;;;2.53;1.37;;;-0.50;99.90;;;;;;6282245;22;20221;-94
2022/01/28 11:49:25;;;;;;;1.73;1.30;;;-0.50;99.90;;;;;;6255254;22;20558;-95
2022/01/28 11:51:55;;;;;;;2.30;1.47;;;-0.50;99.90;;;;;;6281636;22;20540;-94
2022/01/28 11:54:38;;;;;;;1.43;1.23;;;-0.50;99.90;;;;;;6281019;22;20608;-94
2022/01/28 11:57:21;;;;;;;1.80;1.23;;;-0.50;99.90;;;;;;6280090;22;20203;-94
2022/01/28 11:59:52;;;;;;;1.23;1.00;;;-0.50;99.90;;;;;;6280445;22;20628;-95
2022/01/28 12:02:25;;;;;;;1.67;1.10;;;-0.50;99.90;;;;;;6286352;22;20686;-95
2022/01/28 12:04:56;;;;;;;0.93;0.87;;;-0.50;99.90;;;;;;6280920;22;20177;-95
2022/01/28 12:07:31;;;;;;;0.90;0.70;;;-0.40;99.90;;;;;;6280691;22;20186;-95
2022/01/28 12:10:03;;;;;;;1.07;0.80;;;-0.30;99.90;;;;;;6281973;22;20163;-93
2022/01/28 12:12:58;;;;;;;0.93;0.73;;;0.10;99.90;;;;;;6282081;22;20178;-94
2022/01/28 12:15:32;;;;;;;2.97;0.93;;;0.30;99.90;;;;;;6302712;22;20180;-94
2022/01/28 12:18:11;;;;;;;1.10;0.90;;;0.30;99.90;;;;;;6303973;22;20190;-94
2022/01/28 12:20:48;;;;;;;0.73;0.63;;;0.40;99.90;;;;;;6304968;22;20159;-92
2022/01/28 12:23:28;;;;;;;1.40;0.90;;;0.30;99.90;;;;;;6304874;22;20183;-95
2022/01/28 12:26:01;;;;;;;0.90;0.63;;;0.30;99.90;;;;;;6304120;22;20160;-95
2022/01/28 12:29:04;;;;;;;0.50;0.50;;;0.30;99.90;;;;;;6293072;22;20178;-92
2022/01/28 12:32:00;;;;;;;1.40;0.80;;;0.30;99.90;;;;;;6282036;22;20196;-94
2022/01/28 12:34:33;;;;;;;1.20;0.70;;;0.20;99.90;;;;;;6286938;22;20529;-94
2022/01/28 12:37:04;;;;;;;1.03;0.80;;;0.30;99.90;;;;;;6282919;22;20171;-93
2022/01/28 12:39:38;;;;;;;1.00;0.70;;;0.20;99.90;;;;;;6282046;22;20256;-93
2022/01/28 12:42:23;;;;;;;1.07;0.80;;;0.20;99.90;;;;;;6282184;22;20353;-94
2022/01/28 12:44:55;;;;;;;0.93;0.67;;;0.20;99.90;;;;;;6281836;22;20201;-94
2022/01/28 12:47:28;;;;;;;1.10;0.70;;;0.20;99.90;;;;;;6281222;22;20182;-93
2022/01/28 12:50:04;;;;;;;1.47;0.70;;;0.20;99.90;;;;;;6282168;22;20170;-95
2022/01/28 12:52:36;;;;;;;1.60;0.80;;;0.20;99.90;;;;;;6281971;22;20197;-94
2022/01/28 12:55:10;;;;;;;0.87;0.60;;;0.10;99.90;;;;;;6281532;22;20255;-94
2022/01/28 12:57:44;;;;;;;0.80;0.70;;;0.10;99.90;;;;;;6280490;22;20210;-93
2022/01/28 13:00:17;;;;;;;0.97;0.80;;;0.00;99.90;;;;;;6257587;22;20211;-93
2022/01/28 13:02:51;;;;;;;1.07;0.73;;;-0.10;99.90;;;;;;6284259;22;20271;-94
2022/01/28 13:05:37;;;;;;;1.20;0.73;;;-0.10;99.90;;;;;;6282417;22;20254;-94
2022/01/28 13:08:29;;;;;;;1.33;1.07;;;-0.20;99.90;;;;;;6285768;22;20186;-93
2022/01/28 13:11:05;;;;;;;1.00;0.87;;;-0.30;99.90;;;;;;6284384;22;20212;-94
2022/01/28 13:13:36;;;;;;;1.37;0.90;;;-0.30;99.90;;;;;;6281551;22;20233;-92
2022/01/28 13:16:07;;;;;;;1.10;1.00;;;-0.40;99.90;;;;;;6260010;22;20226;-93
2022/01/28 13:18:38;;;;;;;0.97;0.70;;;-0.40;99.90;;;;;;6283531;22;20216;-94
2022/01/28 13:21:11;;;;;;;1.40;1.00;;;-0.40;99.90;;;;;;6282792;22;20202;-93
2022/01/28 13:23:42;;;;;;;0.83;0.70;;;-0.50;99.90;;;;;;6281283;22;20168;-94
2022/01/28 13:26:13;;;;;;;2.20;0.70;;;-0.50;99.90;;;;;;6284432;22;20217;-95
2022/01/28 13:28:45;;;;;;;1.00;0.90;;;-0.50;99.90;;;;;;6279076;22;20175;-93
2022/01/28 13:31:26;;;;;;;1.37;0.83;;;-0.60;99.90;;;;;;6280755;22;20190;-94
2022/01/28 13:34:00;;;;;;;1.77;1.00;;;-0.70;99.90;;;;;;6280915;22;20167;-94
2022/01/28 13:37:01;;;;;;;1.87;1.20;;;-0.70;99.90;;;;;;6279787;22;20165;-94
2022/01/28 13:39:33;;;;;;;0.87;0.73;;;-0.80;99.90;;;;;;6281443;22;20227;-94
2022/01/28 13:42:12;;;;;;;1.43;1.10;;;-0.80;99.90;;;;;;6281728;22;20165;-95
2022/01/28 13:44:49;;;;;;;1.20;1.10;;;-0.80;99.90;;;;;;6281691;22;20497;-95
2022/01/28 13:47:20;;;;;;;2.57;1.30;;;-0.80;99.90;;;;;;6280191;22;20220;-94
2022/01/28 13:49:59;;;;;;;1.60;1.20;;;-0.80;99.90;;;;;;6283427;22;20195;-95
2022/01/28 13:52:48;;;;;;;1.17;1.07;;;-0.80;99.90;;;;;;6281657;22;20169;-95
2022/01/28 13:55:37;;;;;;;1.93;1.20;;;-0.90;99.90;;;;;;6281132;22;20170;-95
2022/01/28 13:58:08;;;;;;;2.67;1.20;;;-0.90;99.90;;;;;;6279640;22;20221;-94
2022/01/28 14:00:41;;;;;;;2.90;1.50;;;-0.90;99.90;;;;;;6280118;22;20185;-94
2022/01/28 14:03:21;;;;;;;2.47;1.40;;;-0.90;99.90;;;;;;6280674;22;20231;-94
2022/01/28 14:05:55;;;;;;;1.27;1.10;;;-0.80;99.90;;;;;;6281172;22;20171;-94
2022/01/28 14:08:51;;;;;;;1.33;0.97;;;-0.80;99.90;;;;;;6279921;22;20241;-94
2022/01/28 14:11:36;;;;;;;1.87;1.20;;;-0.80;99.90;;;;;;6281465;22;20179;-95
2022/01/28 14:14:15;;;;;;;1.40;1.00;;;-0.80;99.90;;;;;;6281349;22;20178;-94
2022/01/28 14:16:48;;;;;;;1.47;1.37;;;-0.90;99.90;;;;;;6280061;22;20211;-94
2022/01/28 14:19:19;;;;;;;1.70;1.20;;;-0.80;99.90;;;;;;6280557;22;20192;-94
2022/01/28 14:21:52;;;;;;;3.17;1.40;;;-0.80;99.90;;;;;;6280847;22;20254;-95
2022/01/28 14:24:24;;;;;;;3.53;1.10;;;-0.80;99.90;;;;;;6280748;22;20237;-94
2022/01/28 14:27:10;;;;;;;1.87;1.20;;;-0.80;99.90;;;;;;6279991;22;20181;-94
2022/01/28 14:30:01;;;;;;;1.13;1.03;;;-0.80;99.90;;;;;;6281264;22;20191;-94
2022/01/28 14:32:34;;;;;;;2.07;1.57;;;-0.80;99.90;;;;;;6284262;22;20198;-93
2022/01/28 14:35:05;;;;;;;1.20;1.07;;;-0.80;99.90;;;;;;6303053;22;20156;-94
2022/01/28 14:37:38;;;;;;;1.80;1.10;;;-0.80;99.90;;;;;;6302833;22;20165;-94
2022/01/28 14:40:10;;;;;;;1.00;0.90;;;-0.70;99.90;;;;;;6299045;22;20203;-95